Time;durP1;ratioP1;P1;durP2;ratioP2;P2;SDS_P1;SDS_P2;PMS_P1;PMS_P2;Temp;Humidity;BMP_temperature;BMP_pressure;BME280_temperature;BME280_humidity;BME280_pressure;Samples;Min_cycle;Max_cycle;Signal;HPM_P1;HPM_P2
2022/06/28 00:01:07;;;;;;;2.40;2.10;;;15.00;58.90;;;;;;4896810;29;20587;-45
2022/06/28 00:03:38;;;;;;;1.77;1.63;;;15.00;58.90;;;;;;4897412;29;20571;-45
2022/06/28 00:06:08;;;;;;;2.65;2.00;;;15.00;58.80;;;;;;4897324;29;20217;-45
2022/06/28 00:08:39;;;;;;;2.20;2.00;;;15.00;58.80;;;;;;4897663;29;20208;-45
2022/06/28 00:11:10;;;;;;;2.25;1.90;;;15.00;58.70;;;;;;4897327;29;20220;-47
2022/06/28 00:13:43;;;;;;;2.72;1.90;;;15.00;58.70;;;;;;4897230;29;20216;-45
2022/06/28 00:16:16;;;;;;;3.92;2.45;;;15.00;58.70;;;;;;4897540;29;20213;-46
2022/06/28 00:18:48;;;;;;;2.35;2.03;;;15.00;58.60;;;;;;4896693;29;20201;-48
2022/06/28 00:21:18;;;;;;;2.20;1.80;;;15.00;58.60;;;;;;4897817;29;20207;-45
2022/06/28 00:23:49;;;;;;;2.53;1.98;;;15.00;58.70;;;;;;4896805;29;20662;-50
2022/06/28 00:26:20;;;;;;;2.85;2.10;;;15.00;58.70;;;;;;4898013;29;20220;-45
2022/06/28 00:28:53;;;;;;;2.42;1.80;;;15.00;58.70;;;;;;4897508;29;20559;-47
2022/06/28 00:31:25;;;;;;;1.92;1.70;;;15.00;58.70;;;;;;4896888;29;20217;-49
2022/06/28 00:33:55;;;;;;;2.35;1.75;;;15.00;58.70;;;;;;4897481;29;20205;-48
2022/06/28 00:36:26;;;;;;;2.25;1.50;;;15.00;58.70;;;;;;4895945;29;20213;-49
2022/06/28 00:38:57;;;;;;;3.10;1.73;;;15.00;58.70;;;;;;4896086;29;20201;-49
2022/06/28 00:41:28;;;;;;;2.25;1.80;;;15.00;58.70;;;;;;4897250;29;20399;-46
2022/06/28 00:44:01;;;;;;;1.95;1.73;;;15.00;58.70;;;;;;4896568;29;20208;-47
2022/06/28 00:46:33;;;;;;;2.10;1.55;;;15.00;58.80;;;;;;4897111;29;20217;-48
2022/06/28 00:49:04;;;;;;;2.08;1.63;;;15.00;58.70;;;;;;4897347;29;20216;-47
2022/06/28 00:51:35;;;;;;;2.13;1.92;;;15.00;58.80;;;;;;4896552;29;20216;-49
2022/06/28 00:54:06;;;;;;;2.83;1.92;;;15.00;58.80;;;;;;4896149;29;20201;-48
2022/06/28 00:56:37;;;;;;;2.17;1.80;;;15.00;58.70;;;;;;4896325;29;20197;-50
2022/06/28 00:59:10;;;;;;;2.53;1.88;;;15.00;58.70;;;;;;4896373;29;20212;-48
2022/06/28 01:01:41;;;;;;;1.95;1.77;;;15.00;58.60;;;;;;4896585;29;20204;-49
2022/06/28 01:04:12;;;;;;;2.45;2.03;;;15.00;58.60;;;;;;4896407;29;20577;-47
2022/06/28 01:06:43;;;;;;;1.92;1.60;;;15.00;58.60;;;;;;4895822;29;20208;-49
2022/06/28 01:09:14;;;;;;;1.90;1.67;;;15.00;58.60;;;;;;4896031;29;20653;-46
2022/06/28 01:11:44;;;;;;;2.00;1.80;;;15.00;58.60;;;;;;4895749;29;20224;-48
2022/06/28 01:14:17;;;;;;;1.70;1.60;;;15.00;58.60;;;;;;4896175;29;20231;-49
2022/06/28 01:16:49;;;;;;;1.90;1.58;;;15.00;58.70;;;;;;4897072;29;20587;-47
2022/06/28 01:19:19;;;;;;;2.00;1.80;;;15.00;58.60;;;;;;4895700;29;20212;-45
2022/06/28 01:21:51;;;;;;;2.28;1.88;;;15.00;58.70;;;;;;4895808;29;20654;-46
2022/06/28 01:24:24;;;;;;;2.30;1.90;;;15.00;58.70;;;;;;4896008;29;20200;-45
2022/06/28 01:26:55;;;;;;;1.88;1.65;;;15.00;58.70;;;;;;4896410;29;20196;-49
2022/06/28 01:29:26;;;;;;;2.38;1.80;;;15.00;58.70;;;;;;4896357;29;20201;-47
2022/06/28 01:31:57;;;;;;;2.03;1.80;;;15.00;58.80;;;;;;4895632;29;20233;-48
2022/06/28 01:34:27;;;;;;;1.92;1.80;;;15.00;58.70;;;;;;4895475;29;20208;-47
2022/06/28 01:36:58;;;;;;;2.40;1.73;;;15.00;58.70;;;;;;4895692;29;20203;-48
2022/06/28 01:39:31;;;;;;;3.25;2.10;;;15.00;58.60;;;;;;4877191;29;20206;-52
2022/06/28 01:42:02;;;;;;;1.90;1.75;;;15.00;58.60;;;;;;4891900;29;20208;-48
2022/06/28 01:44:33;;;;;;;1.85;1.75;;;15.10;58.60;;;;;;4896446;29;20223;-49
2022/06/28 01:47:04;;;;;;;2.30;2.08;;;15.00;58.50;;;;;;4896045;29;20216;-49
2022/06/28 01:49:35;;;;;;;2.65;2.03;;;15.00;58.50;;;;;;4894836;29;20197;-48
2022/06/28 01:52:06;;;;;;;1.90;1.73;;;15.00;58.60;;;;;;4910059;29;20579;-46
2022/06/28 01:54:39;;;;;;;1.85;1.67;;;15.00;58.60;;;;;;4915807;29;20228;-47
2022/06/28 01:57:10;;;;;;;1.95;1.75;;;15.00;58.60;;;;;;4907427;29;20197;-48
2022/06/28 01:59:41;;;;;;;2.45;1.88;;;15.00;58.60;;;;;;4896283;29;20205;-48
2022/06/28 02:02:12;;;;;;;4.32;2.00;;;15.00;58.60;;;;;;4910950;29;20201;-49
2022/06/28 02:04:43;;;;;;;2.40;1.90;;;15.00;58.60;;;;;;4913914;29;20234;-48
2022/06/28 02:07:14;;;;;;;2.20;2.00;;;15.00;58.70;;;;;;4914333;29;20203;-49
2022/06/28 02:09:46;;;;;;;2.10;1.90;;;15.00;58.70;;;;;;4914062;29;20214;-48
2022/06/28 02:12:17;;;;;;;3.67;1.85;;;15.00;58.70;;;;;;4914196;29;20220;-48
2022/06/28 02:14:47;;;;;;;2.38;1.83;;;15.00;58.70;;;;;;4914624;29;20228;-48
2022/06/28 02:17:18;;;;;;;2.75;2.15;;;15.00;58.70;;;;;;4911453;29;20200;-49
2022/06/28 02:19:49;;;;;;;2.30;1.90;;;15.00;58.60;;;;;;4895747;29;20197;-49
2022/06/28 02:22:20;;;;;;;2.25;1.88;;;15.00;58.60;;;;;;4894981;29;20201;-49
2022/06/28 02:24:53;;;;;;;2.42;2.10;;;15.00;58.60;;;;;;4895784;29;20570;-50
2022/06/28 02:27:24;;;;;;;3.35;2.17;;;15.10;58.60;;;;;;4895465;29;20224;-48
2022/06/28 02:29:55;;;;;;;2.83;2.05;;;15.10;58.70;;;;;;4895145;29;20207;-47
2022/06/28 02:32:25;;;;;;;2.60;2.40;;;15.10;58.70;;;;;;4895309;29;20250;-49
2022/06/28 02:40:31;;;;;;;2.45;2.20;;;15.10;58.70;;;;;;4896013;29;20560;-48
2022/06/28 02:43:03;;;;;;;3.38;2.83;;;15.10;58.80;;;;;;4876160;29;20228;-47
2022/06/28 02:45:35;;;;;;;2.35;2.10;;;15.10;58.80;;;;;;4876268;29;20699;-48
2022/06/28 02:48:07;;;;;;;3.40;2.63;;;15.10;58.90;;;;;;4894475;29;20201;-48
2022/06/28 02:50:37;;;;;;;3.30;2.63;;;15.00;58.80;;;;;;4895188;29;20658;-48
2022/06/28 02:53:08;;;;;;;4.20;2.88;;;15.10;58.90;;;;;;4876149;29;20229;-49
2022/06/28 02:55:41;;;;;;;3.10;2.60;;;15.00;58.80;;;;;;4876996;29;20225;-49
2022/06/28 02:58:11;;;;;;;3.40;2.72;;;15.00;58.80;;;;;;4876714;29;20202;-49
2022/06/28 03:00:42;;;;;;;3.28;2.72;;;15.10;58.90;;;;;;4876911;29;20205;-50
2022/06/28 03:03:13;;;;;;;3.67;3.13;;;15.00;58.80;;;;;;4880111;29;20201;-52
2022/06/28 03:05:45;;;;;;;3.08;2.75;;;15.10;58.90;;;;;;4879921;29;20229;-49
2022/06/28 03:08:16;;;;;;;5.53;3.30;;;15.10;58.80;;;;;;4879958;29;20213;-52
2022/06/28 03:10:48;;;;;;;3.92;3.00;;;15.10;58.80;;;;;;4879691;29;20201;-48
2022/06/28 03:13:19;;;;;;;3.95;3.20;;;15.10;58.70;;;;;;4880180;29;20236;-45
2022/06/28 03:15:50;;;;;;;4.03;3.08;;;15.10;58.70;;;;;;4879523;29;20229;-46
2022/06/28 03:18:21;;;;;;;4.93;3.50;;;15.10;58.70;;;;;;4898214;29;20213;-46
2022/06/28 03:20:52;;;;;;;4.45;3.13;;;15.10;58.70;;;;;;4897832;29;20300;-48
2022/06/28 03:23:22;;;;;;;4.75;3.65;;;15.10;58.70;;;;;;4898697;29;20204;-47
2022/06/28 03:25:55;;;;;;;5.18;3.33;;;15.10;58.70;;;;;;4898285;29;20225;-46
2022/06/28 03:28:26;;;;;;;5.60;3.90;;;15.10;58.70;;;;;;4879930;29;20205;-45
2022/06/28 03:30:56;;;;;;;4.22;3.35;;;15.00;58.70;;;;;;4880309;29;20201;-48
2022/06/28 03:33:27;;;;;;;4.03;3.42;;;15.10;58.70;;;;;;4897510;29;20260;-50
2022/06/28 03:35:58;;;;;;;5.55;3.55;;;15.10;58.70;;;;;;4897959;29;20221;-48
2022/06/28 03:38:30;;;;;;;4.93;3.38;;;15.00;58.70;;;;;;4897809;29;20522;-48
2022/06/28 03:41:02;;;;;;;4.32;3.05;;;15.00;58.70;;;;;;4913806;23;20231;-44
2022/06/28 03:43:33;;;;;;;4.47;3.47;;;15.00;58.70;;;;;;4897991;29;20243;-47
2022/06/28 03:46:03;;;;;;;5.93;3.50;;;15.00;58.70;;;;;;4897740;29;20232;-46
2022/06/28 03:48:34;;;;;;;4.40;3.30;;;15.10;58.70;;;;;;4898044;29;20200;-46
2022/06/28 03:51:05;;;;;;;4.28;3.25;;;15.10;58.70;;;;;;4896612;29;20208;-46
2022/06/28 03:53:36;;;;;;;4.10;3.08;;;15.10;58.60;;;;;;4897661;29;20228;-46
2022/06/28 03:56:10;;;;;;;4.55;3.60;;;15.10;58.60;;;;;;4898035;29;20243;-44
2022/06/28 03:58:41;;;;;;;4.22;3.63;;;15.10;58.60;;;;;;4898145;29;20665;-46
2022/06/28 04:01:12;;;;;;;4.63;3.50;;;15.10;58.60;;;;;;4897617;29;20212;-46
2022/06/28 04:03:42;;;;;;;5.25;3.83;;;15.10;58.60;;;;;;4898269;29;20204;-43
2022/06/28 04:06:13;;;;;;;6.15;4.25;;;15.10;58.60;;;;;;4897182;29;20708;-45
2022/06/28 04:08:44;;;;;;;5.53;4.18;;;15.10;58.60;;;;;;4897657;29;20232;-44
2022/06/28 04:11:16;;;;;;;5.25;4.18;;;15.10;58.60;;;;;;4896792;29;20201;-43
2022/06/28 04:13:48;;;;;;;5.03;4.25;;;15.10;58.60;;;;;;4897585;29;20265;-47
2022/06/28 04:16:20;;;;;;;6.03;4.55;;;15.10;58.60;;;;;;4897803;29;20244;-47
2022/06/28 04:18:51;;;;;;;5.63;4.32;;;15.10;58.50;;;;;;4896474;29;20670;-46
2022/06/28 04:21:23;;;;;;;6.53;4.32;;;15.10;58.60;;;;;;4879094;29;20197;-45
2022/06/28 04:23:54;;;;;;;6.15;4.25;;;15.10;58.60;;;;;;4896999;29;20201;-45
2022/06/28 04:26:26;;;;;;;5.80;4.47;;;15.00;58.50;;;;;;4897283;29;20231;-45
2022/06/28 04:28:57;;;;;;;6.22;4.47;;;15.00;58.50;;;;;;4897272;29;20306;-47
2022/06/28 04:31:28;;;;;;;5.75;4.38;;;15.10;58.50;;;;;;4897169;29;20197;-46
2022/06/28 04:33:59;;;;;;;6.00;4.63;;;15.00;58.40;;;;;;4897122;29;20232;-45
2022/06/28 04:36:29;;;;;;;5.40;4.40;;;15.10;58.50;;;;;;4897013;29;20228;-45
2022/06/28 04:39:01;;;;;;;6.18;4.68;;;15.10;58.40;;;;;;4897207;29;20216;-47
2022/06/28 04:41:33;;;;;;;7.63;5.25;;;15.10;58.40;;;;;;4921822;23;20238;-47
2022/06/28 04:44:04;;;;;;;6.90;4.75;;;15.00;58.40;;;;;;4915997;29;20211;-50
2022/06/28 04:46:35;;;;;;;6.65;4.65;;;15.10;58.40;;;;;;4933872;29;20594;-47
2022/06/28 04:49:06;;;;;;;5.85;4.45;;;15.00;58.40;;;;;;4934330;29;20208;-49
2022/06/28 04:51:36;;;;;;;5.90;4.13;;;15.10;58.40;;;;;;4933573;29;20686;-49
2022/06/28 04:54:07;;;;;;;5.90;4.35;;;15.00;58.30;;;;;;4931916;29;20230;-49
2022/06/28 04:56:40;;;;;;;6.32;4.55;;;15.10;58.40;;;;;;4930972;29;20200;-48
2022/06/28 04:59:10;;;;;;;6.38;4.78;;;15.00;58.30;;;;;;4928766;29;20679;-49
2022/06/28 05:01:41;;;;;;;6.10;4.53;;;15.00;58.30;;;;;;4934605;29;20207;-46
2022/06/28 05:04:12;;;;;;;5.28;3.80;;;15.00;58.30;;;;;;4933599;29;20213;-49
2022/06/28 05:06:43;;;;;;;6.63;4.35;;;15.00;58.40;;;;;;4932511;29;20195;-48
2022/06/28 05:09:13;;;;;;;6.20;4.40;;;15.00;58.40;;;;;;4933979;29;20208;-48
2022/06/28 05:11:46;;;;;;;5.03;3.95;;;15.00;58.40;;;;;;4933989;29;20207;-48
2022/06/28 05:14:17;;;;;;;5.47;4.22;;;15.00;58.40;;;;;;4933547;29;20327;-49
2022/06/28 05:16:47;;;;;;;5.45;3.90;;;15.00;58.30;;;;;;4934248;29;20207;-48
2022/06/28 05:19:18;;;;;;;5.78;4.45;;;15.00;58.40;;;;;;4933664;29;20199;-47
2022/06/28 05:21:49;;;;;;;6.40;4.63;;;15.00;58.30;;;;;;4934478;29;20202;-48
2022/06/28 05:24:19;;;;;;;5.95;4.18;;;15.00;58.30;;;;;;4932870;29;20203;-47
2022/06/28 05:26:52;;;;;;;5.82;4.40;;;15.00;58.30;;;;;;4934018;29;20562;-50
2022/06/28 05:29:23;;;;;;;5.22;3.95;;;15.00;58.30;;;;;;4934039;29;20203;-49
2022/06/28 05:31:53;;;;;;;5.68;4.20;;;15.00;58.30;;;;;;4934164;29;20602;-49
2022/06/28 05:34:24;;;;;;;5.07;4.00;;;15.00;58.20;;;;;;4934625;29;20815;-49
2022/06/28 05:36:55;;;;;;;6.15;4.47;;;15.00;58.20;;;;;;4933922;29;20290;-48
2022/06/28 05:39:26;;;;;;;5.47;4.15;;;15.00;58.30;;;;;;4933640;29;20200;-49
2022/06/28 05:41:58;;;;;;;4.55;3.83;;;15.00;58.20;;;;;;4934838;23;20227;-45
2022/06/28 05:44:29;;;;;;;5.82;4.28;;;15.00;58.20;;;;;;4896148;29;20731;-45
2022/06/28 05:47:00;;;;;;;4.70;4.05;;;14.90;58.20;;;;;;4895325;29;20216;-45
2022/06/28 05:49:30;;;;;;;5.68;4.03;;;14.90;58.20;;;;;;4896083;29;20559;-46
2022/06/28 05:52:01;;;;;;;5.35;4.10;;;14.90;58.20;;;;;;4896318;29;20204;-45
2022/06/28 05:54:32;;;;;;;5.15;3.80;;;14.90;58.20;;;;;;4895398;29;20701;-45
2022/06/28 05:57:05;;;;;;;5.10;3.78;;;14.90;58.20;;;;;;4895687;29;20197;-44
2022/06/28 05:59:35;;;;;;;3.97;3.20;;;14.90;58.20;;;;;;4895823;29;20207;-44
2022/06/28 06:02:06;;;;;;;4.80;3.60;;;14.90;58.20;;;;;;4894829;29;20576;-44
2022/06/28 06:04:38;;;;;;;4.85;3.70;;;15.00;58.20;;;;;;4895247;29;20227;-47
2022/06/28 06:07:09;;;;;;;4.88;3.47;;;14.90;58.10;;;;;;4895749;29;20201;-46
2022/06/28 06:09:42;;;;;;;5.15;3.40;;;14.90;58.20;;;;;;4893558;29;20212;-44
2022/06/28 06:12:15;;;;;;;4.03;3.40;;;14.90;58.10;;;;;;4894087;29;20205;-46
2022/06/28 06:14:45;;;;;;;4.30;3.33;;;14.90;58.10;;;;;;4894972;29;20239;-44
2022/06/28 06:17:16;;;;;;;4.53;3.30;;;14.90;58.10;;;;;;4895679;29;20568;-47
2022/06/28 06:19:47;;;;;;;4.15;3.50;;;14.90;58.10;;;;;;4895270;29;20571;-46
2022/06/28 06:22:18;;;;;;;4.53;3.40;;;14.90;58.10;;;;;;4895756;29;20231;-44
2022/06/28 06:24:48;;;;;;;3.70;3.00;;;14.90;58.70;;;;;;4895190;29;20220;-44
2022/06/28 06:27:21;;;;;;;3.53;3.10;;;14.90;59.10;;;;;;4895956;29;20200;-44
2022/06/28 06:29:52;;;;;;;3.95;3.22;;;14.90;59.20;;;;;;4894592;29;20205;-44
2022/06/28 06:32:22;;;;;;;4.30;3.28;;;14.90;59.00;;;;;;4895873;29;20692;-44
2022/06/28 06:34:53;;;;;;;4.00;3.58;;;14.90;58.90;;;;;;4896229;29;20233;-43
2022/06/28 06:37:24;;;;;;;3.88;3.15;;;14.90;59.00;;;;;;4898821;29;20201;-45
2022/06/28 06:39:54;;;;;;;4.13;3.15;;;14.90;58.90;;;;;;4899302;29;20205;-45
2022/06/28 07:42:01;;;;;;;2.95;2.60;;;14.70;58.90;;;;;;5395514;23;20224;-50
2022/06/28 07:44:31;;;;;;;4.45;3.30;;;14.60;58.90;;;;;;4938793;29;20202;-49
2022/06/28 07:47:02;;;;;;;3.72;2.45;;;14.70;59.00;;;;;;4936338;29;20585;-50
2022/06/28 07:55:03;;;;;;;4.85;2.97;;;14.60;58.90;;;;;;4954884;29;20272;-50
2022/06/28 07:57:36;;;;;;;3.45;2.63;;;14.60;59.00;;;;;;4954800;28;20214;-50
2022/06/28 08:00:08;;;;;;;4.82;2.80;;;14.60;59.00;;;;;;4955318;28;20664;-50
2022/06/28 08:02:39;;;;;;;4.35;3.10;;;14.60;59.00;;;;;;4954806;28;20203;-50
2022/06/28 08:05:11;;;;;;;3.60;2.70;;;14.60;59.00;;;;;;4955151;28;20227;-50
2022/06/28 08:07:42;;;;;;;3.78;3.13;;;14.60;59.10;;;;;;4955841;28;20209;-50
2022/06/28 08:10:14;;;;;;;3.65;2.78;;;14.60;59.00;;;;;;4955465;28;20682;-51
2022/06/28 08:12:47;;;;;;;3.15;2.67;;;14.60;59.10;;;;;;4941824;28;20203;-49
2022/06/28 08:15:17;;;;;;;3.28;2.85;;;14.60;59.70;;;;;;4936129;29;20238;-51
2022/06/28 08:17:48;;;;;;;3.53;2.63;;;14.50;59.00;;;;;;4942467;29;20828;-49
2022/06/28 08:20:19;;;;;;;3.45;2.65;;;14.50;59.00;;;;;;4941873;28;20199;-49
2022/06/28 08:22:50;;;;;;;5.47;3.60;;;14.50;59.00;;;;;;4935946;29;20565;-51
2022/06/28 08:25:21;;;;;;;3.05;2.55;;;14.50;59.60;;;;;;4935805;29;20238;-49
2022/06/28 08:27:54;;;;;;;3.28;2.63;;;14.50;59.00;;;;;;4949209;29;20203;-49
2022/06/28 08:30:25;;;;;;;3.63;2.63;;;14.50;59.00;;;;;;4954716;28;20210;-49
2022/06/28 08:32:56;;;;;;;3.10;2.67;;;14.50;59.00;;;;;;4954550;28;20194;-52
2022/06/28 08:35:27;;;;;;;3.53;2.60;;;14.50;59.00;;;;;;4954191;28;20233;-52
2022/06/28 08:37:58;;;;;;;3.72;2.50;;;14.50;59.00;;;;;;4954817;28;20226;-50
2022/06/28 08:40:30;;;;;;;3.90;2.67;;;14.50;59.00;;;;;;4954675;28;20194;-50
2022/06/28 08:43:04;;;;;;;3.38;2.65;;;14.50;59.00;;;;;;4940572;28;20222;-53
2022/06/28 08:45:35;;;;;;;3.50;2.67;;;14.50;59.00;;;;;;4934849;29;20224;-51
2022/06/28 08:48:15;;;;;;;3.97;2.72;;;14.50;59.00;;;;;;4944373;29;20203;-52
2022/06/28 08:50:53;;;;;;;2.90;2.35;;;14.50;59.10;;;;;;4954475;28;20245;-49
2022/06/28 08:53:25;;;;;;;3.53;2.63;;;14.50;59.10;;;;;;4954381;28;20206;-52
2022/06/28 08:55:56;;;;;;;4.35;2.60;;;14.50;59.10;;;;;;4954622;28;20241;-50
2022/06/28 08:58:30;;;;;;;2.65;2.30;;;14.40;59.00;;;;;;4952390;28;20234;-49
2022/06/28 09:01:01;;;;;;;4.05;2.17;;;14.50;59.10;;;;;;4953687;28;20202;-53
2022/06/28 09:03:34;;;;;;;2.70;2.40;;;14.50;59.00;;;;;;4950724;28;20195;-50
2022/06/28 09:06:04;;;;;;;3.50;2.38;;;14.50;59.30;;;;;;4954677;28;20219;-53
2022/06/28 09:08:35;;;;;;;3.60;2.60;;;14.50;59.10;;;;;;4954438;28;20223;-51
2022/06/28 09:11:06;;;;;;;2.97;2.53;;;14.50;59.10;;;;;;4953810;29;20213;-51
2022/06/28 09:13:43;;;;;;;2.50;2.28;;;14.40;59.00;;;;;;4936140;28;20707;-53
2022/06/28 09:16:14;;;;;;;2.85;2.30;;;14.50;59.00;;;;;;4934798;29;20223;-51
2022/06/28 09:18:50;;;;;;;3.38;2.47;;;14.50;59.00;;;;;;4948456;29;20202;-50
2022/06/28 09:21:21;;;;;;;3.40;2.40;;;14.40;59.00;;;;;;4953916;28;20207;-53
2022/06/28 09:23:53;;;;;;;2.83;2.33;;;14.40;59.00;;;;;;4953472;28;20209;-53
2022/06/28 09:26:25;;;;;;;2.50;2.30;;;14.40;59.00;;;;;;4954172;28;20713;-46
2022/06/28 09:28:58;;;;;;;3.70;2.67;;;14.40;59.20;;;;;;4934839;28;20255;-46
2022/06/28 09:31:30;;;;;;;3.72;2.47;;;14.40;59.30;;;;;;4935507;28;20203;-46
2022/06/28 09:34:10;;;;;;;3.38;2.33;;;14.40;59.20;;;;;;4936875;29;20771;-48
2022/06/28 09:36:43;;;;;;;3.40;2.75;;;14.40;59.20;;;;;;4943844;28;20194;-47
2022/06/28 09:39:16;;;;;;;3.38;2.20;;;14.40;59.20;;;;;;4953947;28;20198;-46
2022/06/28 09:41:49;;;;;;;2.88;2.47;;;14.40;59.30;;;;;;4953320;28;20199;-45
2022/06/28 09:44:27;;;;;;;3.45;2.30;;;14.40;59.30;;;;;;4952682;28;20222;-47
2022/06/28 09:46:58;;;;;;;3.03;2.38;;;14.40;59.20;;;;;;4952736;28;20254;-50
2022/06/28 09:49:32;;;;;;;2.78;2.42;;;14.40;59.20;;;;;;4952421;28;20252;-51
2022/06/28 09:52:04;;;;;;;2.85;2.30;;;14.40;59.20;;;;;;4953643;28;20202;-50
2022/06/28 09:54:39;;;;;;;2.95;2.63;;;14.40;59.20;;;;;;4952576;28;20237;-50
2022/06/28 09:57:14;;;;;;;3.47;2.50;;;14.40;59.20;;;;;;4953176;28;20190;-49
2022/06/28 09:59:47;;;;;;;3.67;2.63;;;14.40;59.20;;;;;;4952515;28;20659;-50
2022/06/28 10:02:20;;;;;;;5.63;2.67;;;14.40;59.20;;;;;;4952717;28;20198;-49
2022/06/28 10:04:51;;;;;;;2.40;2.13;;;14.40;59.20;;;;;;4952395;28;20314;-50
2022/06/28 10:07:23;;;;;;;3.28;2.47;;;14.40;59.20;;;;;;4952819;28;20198;-50
2022/06/28 10:09:54;;;;;;;3.30;2.80;;;14.40;59.20;;;;;;4952034;28;20198;-50
2022/06/28 10:15:13;;;;;;;3.05;2.40;;;14.40;59.20;;;;;;4952421;29;20237;-50
2022/06/28 10:17:52;;;;;;;3.30;2.42;;;14.40;59.20;;;;;;4950811;28;20206;-52
2022/06/28 10:20:27;;;;;;;4.35;2.78;;;14.40;59.20;;;;;;4951963;28;20206;-50
2022/06/28 10:23:24;;;;;;;3.67;2.58;;;14.30;59.20;;;;;;4952060;28;20605;-50
2022/06/28 10:26:13;;;;;;;2.53;2.03;;;14.40;59.20;;;;;;4952227;28;20270;-50
2022/06/28 10:28:45;;;;;;;2.78;2.42;;;14.40;59.20;;;;;;4951947;28;20615;-50
2022/06/28 10:31:37;;;;;;;3.17;2.78;;;14.40;59.20;;;;;;4952758;28;20187;-50
2022/06/28 10:34:10;;;;;;;3.25;2.55;;;14.40;59.20;;;;;;4952633;28;20226;-50
2022/06/28 10:36:52;;;;;;;2.90;2.40;;;14.40;59.20;;;;;;4953081;28;20191;-50
2022/06/28 10:39:28;;;;;;;2.45;2.05;;;14.40;59.20;;;;;;4951887;28;20198;-50
2022/06/28 10:42:09;;;;;;;2.90;2.20;;;14.40;59.20;;;;;;4948291;23;20308;-47
2022/06/28 10:44:50;;;;;;;2.90;2.30;;;14.40;59.20;;;;;;4895949;29;20229;-44
2022/06/28 10:47:23;;;;;;;2.55;2.00;;;14.40;59.40;;;;;;4895140;29;20201;-46
2022/06/28 10:50:00;;;;;;;3.13;2.30;;;14.30;59.30;;;;;;4895121;29;20197;-44
2022/06/28 10:52:34;;;;;;;3.20;2.30;;;14.40;59.40;;;;;;4894852;29;20267;-45
2022/06/28 10:55:24;;;;;;;2.60;2.15;;;14.40;59.40;;;;;;4895329;29;20282;-47
2022/06/28 10:58:10;;;;;;;3.13;2.05;;;14.40;59.40;;;;;;4895097;29;20193;-44
2022/06/28 11:00:55;;;;;;;3.15;2.58;;;14.40;59.30;;;;;;4895091;29;20208;-44
2022/06/28 11:03:28;;;;;;;2.63;2.25;;;14.40;59.30;;;;;;4890939;29;20204;-45
2022/06/28 11:05:59;;;;;;;2.95;2.15;;;14.30;59.30;;;;;;4895043;29;20724;-45
2022/06/28 11:08:58;;;;;;;3.53;2.42;;;14.30;59.30;;;;;;4876482;29;20564;-45
2022/06/28 11:11:35;;;;;;;2.75;2.13;;;14.30;59.30;;;;;;4879707;29;20189;-45
2022/06/28 11:14:32;;;;;;;2.75;2.28;;;14.40;59.30;;;;;;4894886;29;20201;-44
2022/06/28 11:17:04;;;;;;;2.85;2.47;;;14.30;59.30;;;;;;4895515;29;20288;-45
2022/06/28 11:19:37;;;;;;;3.03;2.22;;;14.30;59.20;;;;;;4895178;29;20216;-45
2022/06/28 11:22:08;;;;;;;2.58;2.10;;;14.40;59.30;;;;;;4896413;29;20224;-44
2022/06/28 11:24:46;;;;;;;3.28;2.33;;;14.30;59.20;;;;;;4897953;29;20229;-44
2022/06/28 11:27:22;;;;;;;2.90;2.03;;;14.30;59.20;;;;;;4898041;29;20200;-45
2022/06/28 11:29:57;;;;;;;2.60;2.17;;;14.30;59.30;;;;;;4898360;29;20329;-46
2022/06/28 11:32:29;;;;;;;2.67;2.13;;;14.30;59.30;;;;;;4898670;29;20663;-44
2022/06/28 11:35:03;;;;;;;2.33;2.10;;;14.30;59.30;;;;;;4898103;29;20638;-45
2022/06/28 11:37:35;;;;;;;2.50;2.10;;;14.30;59.30;;;;;;4898404;29;20205;-45
2022/06/28 11:40:07;;;;;;;2.25;1.88;;;14.30;59.40;;;;;;4898041;29;20212;-46
2022/06/28 11:42:38;;;;;;;2.75;2.47;;;14.30;59.40;;;;;;4924066;23;20236;-48
2022/06/28 11:45:09;;;;;;;3.95;2.10;;;14.30;59.40;;;;;;4924496;29;20215;-51
2022/06/28 11:47:42;;;;;;;2.88;2.13;;;14.30;59.40;;;;;;4936372;29;20211;-50
2022/06/28 11:50:18;;;;;;;3.08;2.45;;;14.30;59.40;;;;;;4935256;29;20215;-48
2022/06/28 11:52:56;;;;;;;3.83;2.30;;;14.30;59.40;;;;;;4934868;29;20195;-48
2022/06/28 11:55:40;;;;;;;2.58;2.17;;;14.30;59.40;;;;;;4934680;29;20699;-48
2022/06/28 11:58:15;;;;;;;2.58;2.30;;;14.30;59.30;;;;;;4935069;29;20198;-51
2022/06/28 12:01:07;;;;;;;3.20;2.30;;;14.30;59.30;;;;;;4934764;29;20833;-52
2022/06/28 12:03:56;;;;;;;2.45;2.25;;;14.30;59.30;;;;;;4934943;29;20200;-53
2022/06/28 12:06:31;;;;;;;3.35;2.47;;;14.30;59.30;;;;;;4934822;29;20758;-52
2022/06/28 12:09:03;;;;;;;2.45;2.00;;;14.30;59.30;;;;;;4934486;29;20194;-52
2022/06/28 12:11:37;;;;;;;2.72;2.10;;;14.30;59.30;;;;;;4935075;29;20206;-52
2022/06/28 12:14:12;;;;;;;3.67;2.38;;;14.30;59.30;;;;;;4935012;29;20210;-52
2022/06/28 12:16:44;;;;;;;2.83;2.38;;;14.20;59.30;;;;;;4935143;29;20199;-52
2022/06/28 12:19:18;;;;;;;2.55;2.25;;;14.20;59.30;;;;;;4934886;29;20207;-54
2022/06/28 12:22:08;;;;;;;2.30;2.10;;;14.20;59.30;;;;;;4934665;29;20199;-50
2022/06/28 12:24:45;;;;;;;3.10;2.40;;;14.20;59.30;;;;;;4934364;29;20223;-49
2022/06/28 12:27:17;;;;;;;2.38;2.00;;;14.20;59.30;;;;;;4934524;29;20203;-47
2022/06/28 12:29:48;;;;;;;2.65;2.15;;;14.20;59.30;;;;;;4934545;29;20200;-51
2022/06/28 12:32:19;;;;;;;3.63;2.10;;;14.20;59.30;;;;;;4934189;29;20243;-49
2022/06/28 12:34:49;;;;;;;3.08;2.22;;;14.20;59.30;;;;;;4933750;29;20250;-48
2022/06/28 12:37:22;;;;;;;2.40;1.83;;;14.20;59.30;;;;;;4934087;29;20196;-46
2022/06/28 12:39:53;;;;;;;2.53;1.90;;;14.20;59.30;;;;;;4934049;29;20200;-50
2022/06/28 12:42:26;;;;;;;3.55;2.15;;;14.20;59.30;;;;;;4934967;29;20259;-46
2022/06/28 12:44:57;;;;;;;3.15;2.30;;;14.20;59.20;;;;;;4934602;29;20220;-49
2022/06/28 12:47:27;;;;;;;2.95;2.10;;;14.20;59.30;;;;;;4934078;29;20211;-50
2022/06/28 12:50:00;;;;;;;3.17;2.03;;;14.20;59.20;;;;;;4934543;29;20210;-49
2022/06/28 12:52:32;;;;;;;2.55;2.35;;;14.20;59.20;;;;;;4934116;29;20235;-51
2022/06/28 12:55:03;;;;;;;2.53;2.15;;;14.10;59.20;;;;;;4933657;29;20232;-49
2022/06/28 12:57:34;;;;;;;2.75;2.10;;;14.10;59.20;;;;;;4933829;29;20196;-48
2022/06/28 13:00:06;;;;;;;2.33;1.98;;;14.10;59.20;;;;;;4933749;29;20216;-49
2022/06/28 13:02:37;;;;;;;3.30;1.63;;;14.10;59.20;;;;;;4934228;29;20203;-49
2022/06/28 13:05:09;;;;;;;3.70;2.20;;;14.10;59.20;;;;;;4933780;29;20691;-50
2022/06/28 13:07:44;;;;;;;2.88;2.03;;;14.10;59.20;;;;;;4933644;29;20258;-50
2022/06/28 13:10:16;;;;;;;2.85;2.20;;;14.10;59.20;;;;;;4933339;29;20199;-53
2022/06/28 13:12:46;;;;;;;2.45;2.08;;;14.10;59.30;;;;;;4933555;29;20203;-49
2022/06/28 13:15:17;;;;;;;2.03;1.77;;;14.10;59.20;;;;;;4914329;29;20235;-50
2022/06/28 13:17:48;;;;;;;2.10;1.90;;;14.10;59.20;;;;;;4920654;29;20215;-52
2022/06/28 13:20:19;;;;;;;2.05;1.80;;;14.00;59.20;;;;;;4933426;29;20203;-51
2022/06/28 13:22:52;;;;;;;2.63;1.90;;;14.00;59.20;;;;;;4933692;29;20262;-52
2022/06/28 13:25:22;;;;;;;3.03;2.47;;;14.00;59.20;;;;;;4933391;29;20219;-51
2022/06/28 13:27:53;;;;;;;2.28;1.92;;;14.00;59.10;;;;;;4933339;29;20207;-50
2022/06/28 13:30:24;;;;;;;2.53;2.00;;;14.10;59.20;;;;;;4914247;29;20227;-51
2022/06/28 13:32:55;;;;;;;2.97;2.10;;;14.00;59.10;;;;;;4914591;29;20200;-49
2022/06/28 13:35:25;;;;;;;2.80;2.40;;;14.00;59.10;;;;;;4914417;29;20236;-51
2022/06/28 13:37:58;;;;;;;2.60;1.95;;;14.00;59.10;;;;;;4914447;29;20564;-49
2022/06/28 13:40:29;;;;;;;4.30;2.45;;;14.00;59.10;;;;;;4914169;29;20200;-50
2022/06/28 13:43:01;;;;;;;2.40;1.80;;;14.00;59.10;;;;;;4914851;29;20212;-50
2022/06/28 13:45:33;;;;;;;3.78;2.10;;;14.00;59.10;;;;;;4932435;29;20246;-48
2022/06/28 13:48:05;;;;;;;2.20;1.95;;;13.90;59.10;;;;;;4933128;29;20671;-50
2022/06/28 13:50:36;;;;;;;3.25;1.90;;;13.90;59.10;;;;;;4933118;29;20246;-50
2022/06/28 13:53:08;;;;;;;2.90;1.92;;;13.90;59.10;;;;;;4932852;29;20207;-49
2022/06/28 13:55:40;;;;;;;2.40;1.90;;;13.90;59.10;;;;;;4932055;29;20224;-52
2022/06/28 13:58:11;;;;;;;3.65;1.88;;;13.90;59.00;;;;;;4933312;29;20203;-51
2022/06/28 14:00:42;;;;;;;1.98;1.77;;;13.90;59.10;;;;;;4933014;29;20203;-50
2022/06/28 14:03:13;;;;;;;2.42;1.70;;;13.90;59.00;;;;;;4932308;29;20206;-50
2022/06/28 14:05:47;;;;;;;2.33;1.88;;;13.90;59.10;;;;;;4931121;29;20234;-52
2022/06/28 14:08:20;;;;;;;2.42;1.80;;;13.90;59.00;;;;;;4932699;29;20715;-50
2022/06/28 14:10:51;;;;;;;2.25;1.80;;;13.80;59.00;;;;;;4932590;29;20203;-49
2022/06/28 14:13:22;;;;;;;2.08;1.80;;;13.90;59.00;;;;;;4933932;29;20687;-51
2022/06/28 14:15:53;;;;;;;1.98;1.73;;;13.80;58.90;;;;;;4951986;28;20286;-48
2022/06/28 14:18:24;;;;;;;2.55;1.98;;;13.80;58.90;;;;;;4940869;28;20199;-50
2022/06/28 14:20:55;;;;;;;2.92;1.80;;;13.80;58.90;;;;;;4932983;29;20832;-48
2022/06/28 14:23:28;;;;;;;1.83;1.52;;;13.80;58.90;;;;;;4932991;29;20196;-52
2022/06/28 14:25:58;;;;;;;2.00;1.80;;;13.80;58.90;;;;;;4932579;29;20223;-52
2022/06/28 14:28:29;;;;;;;2.50;1.70;;;13.70;58.90;;;;;;4932857;28;20283;-50